sensor_id;sensor_type;location;lat;lon;timestamp;pressure;altitude;pressure_sealevel;temperature;humidity
47883;BME280;37739;50.350;7.578;2023-03-20T00:00:57;99979.75;;;10.35;94.98
47883;BME280;37739;50.350;7.578;2023-03-20T00:03:23;99985.78;;;10.35;95.15
47883;BME280;37739;50.350;7.578;2023-03-20T00:05:51;99985.59;;;10.31;95.14
47883;BME280;37739;50.350;7.578;2023-03-20T00:08:18;99989.31;;;10.39;95.01
47883;BME280;37739;50.350;7.578;2023-03-20T00:10:45;99978.91;;;10.34;94.75
47883;BME280;37739;50.350;7.578;2023-03-20T00:13:22;99986.94;;;10.22;95.32
47883;BME280;37739;50.350;7.578;2023-03-20T00:15:53;99984.38;;;10.22;95.34
47883;BME280;37739;50.350;7.578;2023-03-20T00:18:22;99993.69;;;10.20;95.44
47883;BME280;37739;50.350;7.578;2023-03-20T00:20:49;99995.25;;;10.17;95.74
47883;BME280;37739;50.350;7.578;2023-03-20T00:23:16;99995.00;;;10.11;96.17
47883;BME280;37739;50.350;7.578;2023-03-20T00:25:43;100003.41;;;10.08;96.23
47883;BME280;37739;50.350;7.578;2023-03-20T00:30:53;100007.34;;;10.00;96.37
47883;BME280;37739;50.350;7.578;2023-03-20T00:33:20;100013.00;;;9.93;95.94
47883;BME280;37739;50.350;7.578;2023-03-20T00:35:50;100018.28;;;9.96;96.13
47883;BME280;37739;50.350;7.578;2023-03-20T00:38:16;100015.47;;;9.90;95.54
47883;BME280;37739;50.350;7.578;2023-03-20T00:40:43;100018.91;;;9.90;95.13
47883;BME280;37739;50.350;7.578;2023-03-20T00:43:14;100012.97;;;9.72;95.57
47883;BME280;37739;50.350;7.578;2023-03-20T00:45:40;100014.81;;;9.74;96.22
47883;BME280;37739;50.350;7.578;2023-03-20T00:48:13;100015.53;;;9.72;94.91
47883;BME280;37739;50.350;7.578;2023-03-20T00:50:43;100012.97;;;9.72;94.77
47883;BME280;37739;50.350;7.578;2023-03-20T00:53:10;100017.03;;;9.67;94.70
47883;BME280;37739;50.350;7.578;2023-03-20T00:55:40;100026.44;;;9.68;94.54
47883;BME280;37739;50.350;7.578;2023-03-20T00:58:08;100022.50;;;9.55;95.03
47883;BME280;37739;50.350;7.578;2023-03-20T01:00:39;100018.41;;;9.60;94.46
47883;BME280;37739;50.350;7.578;2023-03-20T01:03:27;100027.13;;;9.44;94.79
47883;BME280;37739;50.350;7.578;2023-03-20T01:05:54;100035.00;;;9.49;94.68
47883;BME280;37739;50.350;7.578;2023-03-20T01:08:23;100036.69;;;9.48;94.84
47883;BME280;37739;50.350;7.578;2023-03-20T01:10:52;100034.66;;;9.41;95.11
47883;BME280;37739;50.350;7.578;2023-03-20T01:13:22;100043.69;;;9.52;95.25
47883;BME280;37739;50.350;7.578;2023-03-20T01:15:49;100040.41;;;9.55;94.56
47883;BME280;37739;50.350;7.578;2023-03-20T01:18:20;100052.06;;;9.48;94.61
47883;BME280;37739;50.350;7.578;2023-03-20T01:20:46;100046.84;;;9.47;94.75
47883;BME280;37739;50.350;7.578;2023-03-20T01:23:14;100050.34;;;9.49;94.46
47883;BME280;37739;50.350;7.578;2023-03-20T01:25:40;100050.16;;;9.44;94.95
47883;BME280;37739;50.350;7.578;2023-03-20T01:28:17;100055.22;;;9.42;94.45
47883;BME280;37739;50.350;7.578;2023-03-20T01:30:46;100057.50;;;9.36;94.79
47883;BME280;37739;50.350;7.578;2023-03-20T01:33:17;100063.03;;;9.46;95.00
47883;BME280;37739;50.350;7.578;2023-03-20T01:35:44;100056.63;;;9.36;94.49
47883;BME280;37739;50.350;7.578;2023-03-20T01:38:18;100065.69;;;9.29;94.64
47883;BME280;37739;50.350;7.578;2023-03-20T01:40:50;100073.44;;;9.31;94.56
47883;BME280;37739;50.350;7.578;2023-03-20T01:43:19;100071.56;;;9.27;95.21
47883;BME280;37739;50.350;7.578;2023-03-20T01:48:59;100076.63;;;9.07;95.10
47883;BME280;37739;50.350;7.578;2023-03-20T01:51:30;100072.88;;;9.00;95.97
47883;BME280;37739;50.350;7.578;2023-03-20T01:56:29;100076.38;;;9.02;95.66
47883;BME280;37739;50.350;7.578;2023-03-20T01:59:08;100083.78;;;8.96;96.43
47883;BME280;37739;50.350;7.578;2023-03-20T02:01:37;100074.44;;;8.97;95.88
47883;BME280;37739;50.350;7.578;2023-03-20T02:04:06;100081.81;;;8.91;95.68
47883;BME280;37739;50.350;7.578;2023-03-20T02:06:33;100075.53;;;9.02;95.11
47883;BME280;37739;50.350;7.578;2023-03-20T02:09:00;100078.44;;;8.92;95.35
47883;BME280;37739;50.350;7.578;2023-03-20T02:11:28;100078.75;;;8.98;95.21
47883;BME280;37739;50.350;7.578;2023-03-20T02:13:57;100080.34;;;8.96;95.13
47883;BME280;37739;50.350;7.578;2023-03-20T02:16:25;100073.69;;;8.99;94.64
47883;BME280;37739;50.350;7.578;2023-03-20T02:18:55;100070.56;;;9.05;94.47
47883;BME280;37739;50.350;7.578;2023-03-20T02:27:38;100057.75;;;8.87;94.46
47883;BME280;37739;50.350;7.578;2023-03-20T02:42:07;100041.66;;;9.08;92.43
47883;BME280;37739;50.350;7.578;2023-03-20T02:47:48;100047.53;;;9.05;92.48
47883;BME280;37739;50.350;7.578;2023-03-20T02:50:32;100054.84;;;8.97;92.94
47883;BME280;37739;50.350;7.578;2023-03-20T02:55:47;100063.81;;;9.07;93.04
47883;BME280;37739;50.350;7.578;2023-03-20T02:58:23;100072.28;;;9.06;92.83
47883;BME280;37739;50.350;7.578;2023-03-20T03:00:54;100069.97;;;9.11;92.32
47883;BME280;37739;50.350;7.578;2023-03-20T03:03:27;100073.31;;;9.10;92.60
47883;BME280;37739;50.350;7.578;2023-03-20T03:06:06;100081.06;;;9.11;92.30
47883;BME280;37739;50.350;7.578;2023-03-20T03:08:38;100077.66;;;9.11;92.54
47883;BME280;37739;50.350;7.578;2023-03-20T03:11:07;100079.38;;;9.12;92.32
47883;BME280;37739;50.350;7.578;2023-03-20T03:13:36;100089.53;;;9.10;92.24
47883;BME280;37739;50.350;7.578;2023-03-20T03:16:07;100088.84;;;9.13;92.76
47883;BME280;37739;50.350;7.578;2023-03-20T03:18:36;100090.81;;;9.18;92.47
47883;BME280;37739;50.350;7.578;2023-03-20T03:21:05;100090.66;;;9.15;91.92
47883;BME280;37739;50.350;7.578;2023-03-20T03:23:38;100092.03;;;9.27;92.19
47883;BME280;37739;50.350;7.578;2023-03-20T03:26:05;100085.38;;;9.30;91.82
47883;BME280;37739;50.350;7.578;2023-03-20T03:28:36;100080.84;;;9.24;91.51
47883;BME280;37739;50.350;7.578;2023-03-20T03:31:06;100080.03;;;9.26;91.62
47883;BME280;37739;50.350;7.578;2023-03-20T03:33:36;100086.19;;;9.29;91.49
47883;BME280;37739;50.350;7.578;2023-03-20T03:39:01;100075.56;;;9.21;91.67
47883;BME280;37739;50.350;7.578;2023-03-20T03:44:11;100062.88;;;9.42;90.56
47883;BME280;37739;50.350;7.578;2023-03-20T03:46:50;100075.13;;;9.30;90.36
47883;BME280;37739;50.350;7.578;2023-03-20T03:49:23;100081.44;;;9.19;90.76
47883;BME280;37739;50.350;7.578;2023-03-20T03:51:56;100079.75;;;9.19;91.25
47883;BME280;37739;50.350;7.578;2023-03-20T03:54:27;100084.94;;;9.21;91.15
47883;BME280;37739;50.350;7.578;2023-03-20T03:56:58;100079.53;;;9.15;91.33
47883;BME280;37739;50.350;7.578;2023-03-20T03:59:30;100089.13;;;9.19;90.91
47883;BME280;37739;50.350;7.578;2023-03-20T04:01:58;100100.31;;;9.21;90.77
47883;BME280;37739;50.350;7.578;2023-03-20T04:04:32;100107.25;;;9.23;90.55
47883;BME280;37739;50.350;7.578;2023-03-20T04:06:58;100104.69;;;9.23;90.83
47883;BME280;37739;50.350;7.578;2023-03-20T04:09:26;100101.91;;;9.19;90.59
47883;BME280;37739;50.350;7.578;2023-03-20T04:11:51;100103.91;;;9.07;90.56
47883;BME280;37739;50.350;7.578;2023-03-20T04:14:18;100106.22;;;9.02;90.88
47883;BME280;37739;50.350;7.578;2023-03-20T04:16:46;100113.03;;;9.01;91.23
47883;BME280;37739;50.350;7.578;2023-03-20T04:19:11;100115.50;;;9.00;91.18
47883;BME280;37739;50.350;7.578;2023-03-20T04:21:39;100115.50;;;9.00;91.26
47883;BME280;37739;50.350;7.578;2023-03-20T04:24:05;100119.97;;;9.04;91.09
47883;BME280;37739;50.350;7.578;2023-03-20T04:26:31;100111.22;;;8.99;91.19
47883;BME280;37739;50.350;7.578;2023-03-20T04:28:59;100088.69;;;9.10;91.52
47883;BME280;37739;50.350;7.578;2023-03-20T04:31:24;100084.00;;;9.19;90.55
47883;BME280;37739;50.350;7.578;2023-03-20T04:33:52;100082.84;;;9.12;90.64
47883;BME280;37739;50.350;7.578;2023-03-20T04:36:17;100085.81;;;9.21;90.22
47883;BME280;37739;50.350;7.578;2023-03-20T04:38:47;100077.53;;;9.27;90.22
47883;BME280;37739;50.350;7.578;2023-03-20T04:41:12;100079.50;;;9.33;90.18
47883;BME280;37739;50.350;7.578;2023-03-20T04:43:38;100087.88;;;9.29;90.34
47883;BME280;37739;50.350;7.578;2023-03-20T04:46:04;100075.00;;;9.27;90.93
47883;BME280;37739;50.350;7.578;2023-03-20T04:48:30;100069.44;;;9.36;90.56
47883;BME280;37739;50.350;7.578;2023-03-20T04:51:00;100090.00;;;9.37;89.49
47883;BME280;37739;50.350;7.578;2023-03-20T04:53:25;100085.75;;;9.38;89.66
47883;BME280;37739;50.350;7.578;2023-03-20T04:55:51;100093.84;;;9.29;89.86
47883;BME280;37739;50.350;7.578;2023-03-20T04:58:18;100102.66;;;9.16;90.16
47883;BME280;37739;50.350;7.578;2023-03-20T05:00:44;100099.28;;;9.17;90.63
47883;BME280;37739;50.350;7.578;2023-03-20T05:03:12;100100.88;;;9.15;90.24
47883;BME280;37739;50.350;7.578;2023-03-20T05:05:37;100106.00;;;9.15;90.49
47883;BME280;37739;50.350;7.578;2023-03-20T05:08:05;100099.16;;;9.14;90.60
47883;BME280;37739;50.350;7.578;2023-03-20T05:10:30;100097.47;;;9.15;90.83
47883;BME280;37739;50.350;7.578;2023-03-20T05:12:56;100094.06;;;9.16;90.71
47883;BME280;37739;50.350;7.578;2023-03-20T05:15:24;100096.00;;;9.20;90.69
47883;BME280;37739;50.350;7.578;2023-03-20T05:17:54;100096.41;;;9.29;90.75
47883;BME280;37739;50.350;7.578;2023-03-20T05:20:20;100090.84;;;9.38;89.74
47883;BME280;37739;50.350;7.578;2023-03-20T05:22:48;100094.94;;;9.34;89.61
47883;BME280;37739;50.350;7.578;2023-03-20T05:25:16;100099.34;;;9.37;89.71
47883;BME280;37739;50.350;7.578;2023-03-20T05:27:44;100098.66;;;9.41;89.65
47883;BME280;37739;50.350;7.578;2023-03-20T05:30:13;100097.94;;;9.43;89.24
47883;BME280;37739;50.350;7.578;2023-03-20T05:32:39;100102.25;;;9.44;89.03
47883;BME280;37739;50.350;7.578;2023-03-20T05:35:07;100100.44;;;9.42;89.09
47883;BME280;37739;50.350;7.578;2023-03-20T05:37:35;100102.19;;;9.43;89.23
47883;BME280;37739;50.350;7.578;2023-03-20T05:40:04;100101.38;;;9.44;89.43
47883;BME280;37739;50.350;7.578;2023-03-20T05:42:34;100097.94;;;9.43;88.88
47883;BME280;37739;50.350;7.578;2023-03-20T05:44:59;100096.09;;;9.41;88.84
47883;BME280;37739;50.350;7.578;2023-03-20T05:47:27;100101.31;;;9.42;89.31
47883;BME280;37739;50.350;7.578;2023-03-20T05:49:53;100099.75;;;9.46;89.01
47883;BME280;37739;50.350;7.578;2023-03-20T05:52:23;100100.72;;;9.48;89.09
47883;BME280;37739;50.350;7.578;2023-03-20T05:54:51;100100.00;;;9.51;89.43
47883;BME280;37739;50.350;7.578;2023-03-20T05:57:18;100096.69;;;9.53;89.52
47883;BME280;37739;50.350;7.578;2023-03-20T05:59:46;100099.25;;;9.53;89.25
47883;BME280;37739;50.350;7.578;2023-03-20T06:02:11;100096.69;;;9.53;89.59
47883;BME280;37739;50.350;7.578;2023-03-20T06:04:38;100091.63;;;9.55;89.73
47883;BME280;37739;50.350;7.578;2023-03-20T06:07:06;100087.31;;;9.54;89.56
47883;BME280;37739;50.350;7.578;2023-03-20T06:09:33;100081.31;;;9.53;89.07
47883;BME280;37739;50.350;7.578;2023-03-20T06:12:01;100083.59;;;9.47;89.74
47883;BME280;37739;50.350;7.578;2023-03-20T06:14:29;100086.16;;;9.47;89.51
47883;BME280;37739;50.350;7.578;2023-03-20T06:16:54;100075.19;;;9.50;89.09
47883;BME280;37739;50.350;7.578;2023-03-20T06:19:21;100070.84;;;9.49;89.39
47883;BME280;37739;50.350;7.578;2023-03-20T06:21:49;100074.44;;;9.52;89.18
47883;BME280;37739;50.350;7.578;2023-03-20T06:24:15;100080.44;;;9.53;89.14
47883;BME280;37739;50.350;7.578;2023-03-20T06:26:40;100083.22;;;9.57;88.86
47883;BME280;37739;50.350;7.578;2023-03-20T06:29:06;100081.75;;;9.62;88.68
47883;BME280;37739;50.350;7.578;2023-03-20T06:31:33;100083.56;;;9.65;88.53
47883;BME280;37739;50.350;7.578;2023-03-20T06:34:01;100083.72;;;9.68;88.47
47883;BME280;37739;50.350;7.578;2023-03-20T06:36:30;100092.25;;;9.69;88.44
47883;BME280;37739;50.350;7.578;2023-03-20T06:38:56;100095.91;;;9.74;88.26
47883;BME280;37739;50.350;7.578;2023-03-20T06:41:21;100090.97;;;9.78;87.84
47883;BME280;37739;50.350;7.578;2023-03-20T06:43:46;100098.88;;;9.83;87.50
47883;BME280;37739;50.350;7.578;2023-03-20T06:46:15;100109.19;;;9.85;87.22
47883;BME280;37739;50.350;7.578;2023-03-20T06:48:40;100105.88;;;9.87;87.21
47883;BME280;37739;50.350;7.578;2023-03-20T06:51:06;100117.91;;;9.88;87.00
47883;BME280;37739;50.350;7.578;2023-03-20T06:53:32;100115.41;;;9.90;87.42
47883;BME280;37739;50.350;7.578;2023-03-20T06:55:57;100112.91;;;9.91;87.24
47883;BME280;37739;50.350;7.578;2023-03-20T06:58:25;100113.91;;;9.95;87.16
47883;BME280;37739;50.350;7.578;2023-03-20T07:00:51;100114.88;;;9.97;87.03
47883;BME280;37739;50.350;7.578;2023-03-20T07:03:18;100117.56;;;10.00;86.83
47883;BME280;37739;50.350;7.578;2023-03-20T07:05:48;100111.41;;;9.96;86.77
47883;BME280;37739;50.350;7.578;2023-03-20T07:08:17;100111.50;;;9.98;86.67
47883;BME280;37739;50.350;7.578;2023-03-20T07:10:42;100117.56;;;10.00;86.54
47883;BME280;37739;50.350;7.578;2023-03-20T07:13:11;100111.69;;;10.02;86.44
47883;BME280;37739;50.350;7.578;2023-03-20T07:15:38;100104.00;;;10.02;86.01
47883;BME280;37739;50.350;7.578;2023-03-20T07:18:06;100100.63;;;10.03;86.09
47883;BME280;37739;50.350;7.578;2023-03-20T07:20:34;100101.56;;;10.06;85.76
47883;BME280;37739;50.350;7.578;2023-03-20T07:23:02;100102.53;;;10.08;85.37
47883;BME280;37739;50.350;7.578;2023-03-20T07:25:29;100098.41;;;10.11;85.43
47883;BME280;37739;50.350;7.578;2023-03-20T07:27:55;100108.72;;;10.13;85.23
47883;BME280;37739;50.350;7.578;2023-03-20T07:30:20;100113.84;;;10.13;84.92
47883;BME280;37739;50.350;7.578;2023-03-20T07:32:48;100113.03;;;10.14;84.96
47883;BME280;37739;50.350;7.578;2023-03-20T07:35:13;100117.38;;;10.15;84.30
47883;BME280;37739;50.350;7.578;2023-03-20T07:37:39;100119.25;;;10.19;84.24
47883;BME280;37739;50.350;7.578;2023-03-20T07:40:07;100111.88;;;10.27;84.27
47883;BME280;37739;50.350;7.578;2023-03-20T07:42:33;100123.25;;;10.32;83.88
47883;BME280;37739;50.350;7.578;2023-03-20T07:44:58;100120.03;;;10.36;83.82
47883;BME280;37739;50.350;7.578;2023-03-20T07:47:26;100123.31;;;10.33;83.66
47883;BME280;37739;50.350;7.578;2023-03-20T07:49:51;100129.66;;;10.22;83.85
47883;BME280;37739;50.350;7.578;2023-03-20T07:52:17;100124.84;;;10.30;84.24
47883;BME280;37739;50.350;7.578;2023-03-20T07:54:42;100132.53;;;10.30;83.65
47883;BME280;37739;50.350;7.578;2023-03-20T07:57:10;100137.81;;;10.33;83.44
47883;BME280;37739;50.350;7.578;2023-03-20T07:59:38;100135.03;;;10.28;83.69
47883;BME280;37739;50.350;7.578;2023-03-20T08:02:06;100149.59;;;10.29;84.21
47883;BME280;37739;50.350;7.578;2023-03-20T08:04:33;100148.22;;;10.36;83.89
47883;BME280;37739;50.350;7.578;2023-03-20T08:07:04;100148.00;;;10.31;83.28
47883;BME280;37739;50.350;7.578;2023-03-20T08:09:29;100151.91;;;10.23;84.14
47883;BME280;37739;50.350;7.578;2023-03-20T08:11:55;100145.28;;;10.28;84.15
47883;BME280;37739;50.350;7.578;2023-03-20T08:14:22;100156.72;;;10.35;84.44
47883;BME280;37739;50.350;7.578;2023-03-20T08:16:48;100148.66;;;10.47;83.83
47883;BME280;37739;50.350;7.578;2023-03-20T08:19:13;100150.97;;;10.40;84.33
47883;BME280;37739;50.350;7.578;2023-03-20T08:21:39;100158.00;;;10.45;84.38
47883;BME280;37739;50.350;7.578;2023-03-20T08:24:05;100158.13;;;10.48;84.17
47883;BME280;37739;50.350;7.578;2023-03-20T08:26:30;100154.81;;;10.50;84.07
47883;BME280;37739;50.350;7.578;2023-03-20T08:28:56;100145.81;;;10.60;84.12
47883;BME280;37739;50.350;7.578;2023-03-20T08:31:21;100153.38;;;10.76;84.03
47883;BME280;37739;50.350;7.578;2023-03-20T08:33:47;100150.56;;;10.91;83.51
47883;BME280;37739;50.350;7.578;2023-03-20T08:36:17;100153.63;;;11.04;82.87
47883;BME280;37739;50.350;7.578;2023-03-20T08:38:47;100162.75;;;11.18;82.17
47883;BME280;37739;50.350;7.578;2023-03-20T08:41:12;100166.22;;;11.18;81.71
47883;BME280;37739;50.350;7.578;2023-03-20T08:43:38;100168.09;;;11.23;81.15
47883;BME280;37739;50.350;7.578;2023-03-20T08:46:06;100165.88;;;11.32;81.02
47883;BME280;37739;50.350;7.578;2023-03-20T08:48:32;100166.06;;;11.36;80.17
47883;BME280;37739;50.350;7.578;2023-03-20T08:50:57;100167.81;;;11.37;78.87
47883;BME280;37739;50.350;7.578;2023-03-20T08:53:24;100166.34;;;11.44;79.00
47883;BME280;37739;50.350;7.578;2023-03-20T08:55:51;100166.59;;;11.50;78.36
47883;BME280;37739;50.350;7.578;2023-03-20T08:58:19;100170.16;;;11.54;77.46
47883;BME280;37739;50.350;7.578;2023-03-20T09:00:45;100166.38;;;11.67;77.06
47883;BME280;37739;50.350;7.578;2023-03-20T09:03:16;100167.94;;;11.63;74.68
47883;BME280;37739;50.350;7.578;2023-03-20T09:05:46;100171.78;;;11.52;74.54
47883;BME280;37739;50.350;7.578;2023-03-20T09:08:13;100169.22;;;11.52;74.70
47883;BME280;37739;50.350;7.578;2023-03-20T09:10:41;100179.63;;;11.55;74.91
47883;BME280;37739;50.350;7.578;2023-03-20T09:13:06;100186.28;;;11.50;73.82
47883;BME280;37739;50.350;7.578;2023-03-20T09:15:35;100179.03;;;11.39;72.95
47883;BME280;37739;50.350;7.578;2023-03-20T09:18:00;100178.91;;;11.36;74.18
47883;BME280;37739;50.350;7.578;2023-03-20T09:20:30;100178.28;;;11.42;73.54
47883;BME280;37739;50.350;7.578;2023-03-20T09:22:56;100178.56;;;11.50;74.37
47883;BME280;37739;50.350;7.578;2023-03-20T09:25:21;100178.88;;;11.57;73.84
47883;BME280;37739;50.350;7.578;2023-03-20T09:27:52;100192.41;;;11.53;72.46
47883;BME280;37739;50.350;7.578;2023-03-20T09:30:20;100186.44;;;11.54;72.86
47883;BME280;37739;50.350;7.578;2023-03-20T09:32:46;100183.13;;;11.57;72.30
47883;BME280;37739;50.350;7.578;2023-03-20T09:35:12;100179.81;;;11.59;72.55
47883;BME280;37739;50.350;7.578;2023-03-20T09:37:37;100182.44;;;11.61;72.19
47883;BME280;37739;50.350;7.578;2023-03-20T09:40:03;100179.81;;;11.59;70.83
47883;BME280;37739;50.350;7.578;2023-03-20T09:42:37;100188.31;;;11.58;70.76
47883;BME280;37739;50.350;7.578;2023-03-20T09:47:59;100184.06;;;11.59;69.41
47883;BME280;37739;50.350;7.578;2023-03-20T09:50:31;100183.19;;;11.58;69.64
47883;BME280;37739;50.350;7.578;2023-03-20T09:55:36;100188.22;;;11.55;69.13
47883;BME280;37739;50.350;7.578;2023-03-20T09:58:05;100195.22;;;11.59;69.71
47883;BME280;37739;50.350;7.578;2023-03-20T10:00:37;100193.75;;;11.66;69.92
47883;BME280;37739;50.350;7.578;2023-03-20T10:03:08;100192.31;;;11.73;69.60
47883;BME280;37739;50.350;7.578;2023-03-20T10:08:28;100192.66;;;11.82;67.53
47883;BME280;37739;50.350;7.578;2023-03-20T10:11:00;100196.19;;;11.84;66.69
47883;BME280;37739;50.350;7.578;2023-03-20T10:18:39;100186.13;;;12.13;65.21
47883;BME280;37739;50.350;7.578;2023-03-20T10:21:19;100194.03;;;12.42;65.23
47883;BME280;37739;50.350;7.578;2023-03-20T10:23:56;100192.03;;;12.83;65.33
47883;BME280;37739;50.350;7.578;2023-03-20T10:26:25;100198.47;;;13.21;63.60
47883;BME280;37739;50.350;7.578;2023-03-20T10:29:00;100186.97;;;13.37;62.44
47883;BME280;37739;50.350;7.578;2023-03-20T10:42:20;100174.75;;;13.59;59.36
47883;BME280;37739;50.350;7.578;2023-03-20T10:45:03;100170.25;;;13.51;58.70
47883;BME280;37739;50.350;7.578;2023-03-20T10:47:34;100171.69;;;13.43;59.51
47883;BME280;37739;50.350;7.578;2023-03-20T10:50:06;100177.31;;;13.30;58.66
47883;BME280;37739;50.350;7.578;2023-03-20T10:52:35;100166.25;;;13.08;58.72
47883;BME280;37739;50.350;7.578;2023-03-20T10:55:05;100172.06;;;13.01;59.95
47883;BME280;37739;50.350;7.578;2023-03-20T10:57:37;100173.97;;;13.07;59.17
47883;BME280;37739;50.350;7.578;2023-03-20T11:00:13;100174.91;;;13.10;58.06
47883;BME280;37739;50.350;7.578;2023-03-20T11:02:46;100176.69;;;13.11;57.81
47883;BME280;37739;50.350;7.578;2023-03-20T11:08:04;100165.00;;;12.95;55.13
47883;BME280;37739;50.350;7.578;2023-03-20T11:10:32;100163.81;;;12.86;57.47
47883;BME280;37739;50.350;7.578;2023-03-20T11:13:25;100164.09;;;12.69;55.11
47883;BME280;37739;50.350;7.578;2023-03-20T11:15:52;100159.03;;;12.71;58.00
47883;BME280;37739;50.350;7.578;2023-03-20T11:18:19;100165.16;;;12.74;58.25
47883;BME280;37739;50.350;7.578;2023-03-20T11:20:45;100166.81;;;12.74;57.87
47883;BME280;37739;50.350;7.578;2023-03-20T11:23:19;100171.16;;;12.75;57.50
47883;BME280;37739;50.350;7.578;2023-03-20T11:28:31;100163.59;;;12.80;55.80
47883;BME280;37739;50.350;7.578;2023-03-20T11:31:16;100162.47;;;12.71;55.10
47883;BME280;37739;50.350;7.578;2023-03-20T11:33:50;100162.53;;;12.73;55.43
47883;BME280;37739;50.350;7.578;2023-03-20T11:36:25;100162.41;;;12.70;55.27
47883;BME280;37739;50.350;7.578;2023-03-20T11:38:52;100158.16;;;12.70;55.18
47883;BME280;37739;50.350;7.578;2023-03-20T11:41:26;100152.34;;;12.76;55.94
47883;BME280;37739;50.350;7.578;2023-03-20T11:43:54;100160.94;;;12.76;56.53
47883;BME280;37739;50.350;7.578;2023-03-20T11:46:21;100163.38;;;12.73;55.83
47883;BME280;37739;50.350;7.578;2023-03-20T11:49:03;100164.97;;;12.70;53.83
47883;BME280;37739;50.350;7.578;2023-03-20T11:51:32;100165.56;;;12.61;55.31
47883;BME280;37739;50.350;7.578;2023-03-20T11:54:01;100154.53;;;12.65;55.46
47883;BME280;37739;50.350;7.578;2023-03-20T11:56:29;100152.88;;;12.67;55.07
47883;BME280;37739;50.350;7.578;2023-03-20T12:01:42;100152.22;;;12.73;53.44
47883;BME280;37739;50.350;7.578;2023-03-20T12:04:36;100143.22;;;12.86;53.31
47883;BME280;37739;50.350;7.578;2023-03-20T12:07:12;100140.13;;;12.96;54.33
47883;BME280;37739;50.350;7.578;2023-03-20T12:14:44;100129.91;;;12.73;53.95
47883;BME280;37739;50.350;7.578;2023-03-20T12:28:22;100126.47;;;12.73;53.21
47883;BME280;37739;50.350;7.578;2023-03-20T12:36:15;100124.06;;;12.52;53.41
47883;BME280;37739;50.350;7.578;2023-03-20T12:38:41;100124.44;;;12.38;55.08
47883;BME280;37739;50.350;7.578;2023-03-20T12:41:14;100121.06;;;12.40;54.06
47883;BME280;37739;50.350;7.578;2023-03-20T12:43:50;100120.81;;;12.33;53.91
47883;BME280;37739;50.350;7.578;2023-03-20T12:46:41;100110.78;;;12.40;54.66
47883;BME280;37739;50.350;7.578;2023-03-20T12:54:38;100096.34;;;12.45;54.12
47883;BME280;37739;50.350;7.578;2023-03-20T13:02:43;100093.50;;;12.37;55.44
47883;BME280;37739;50.350;7.578;2023-03-20T13:07:58;100093.38;;;12.32;56.51
47883;BME280;37739;50.350;7.578;2023-03-20T13:10:38;100101.69;;;12.25;55.54
47883;BME280;37739;50.350;7.578;2023-03-20T13:15:50;100102.19;;;12.15;57.79
47883;BME280;37739;50.350;7.578;2023-03-20T13:18:27;100096.06;;;12.11;58.69
47883;BME280;37739;50.350;7.578;2023-03-20T13:21:03;100095.34;;;12.15;59.18
47883;BME280;37739;50.350;7.578;2023-03-20T13:23:39;100091.97;;;12.16;58.03
47883;BME280;37739;50.350;7.578;2023-03-20T13:32:11;100077.22;;;12.36;55.83
47883;BME280;37739;50.350;7.578;2023-03-20T13:37:27;100071.03;;;12.31;54.29
47883;BME280;37739;50.350;7.578;2023-03-20T13:42:51;100069.22;;;12.29;55.33
47883;BME280;37739;50.350;7.578;2023-03-20T13:45:44;100074.31;;;12.27;55.53
47883;BME280;37739;50.350;7.578;2023-03-20T13:48:21;100070.31;;;12.35;56.34
47883;BME280;37739;50.350;7.578;2023-03-20T13:56:51;100069.03;;;12.48;55.39
47883;BME280;37739;50.350;7.578;2023-03-20T13:59:42;100068.88;;;12.44;54.93
47883;BME280;37739;50.350;7.578;2023-03-20T14:05:05;100081.94;;;12.50;56.52
47883;BME280;37739;50.350;7.578;2023-03-20T14:07:41;100073.66;;;12.33;55.04
47883;BME280;37739;50.350;7.578;2023-03-20T14:15:20;100066.91;;;12.11;55.85
47883;BME280;37739;50.350;7.578;2023-03-20T14:17:49;100072.72;;;12.05;55.46
47883;BME280;37739;50.350;7.578;2023-03-20T14:23:01;100073.19;;;11.95;56.66
47883;BME280;37739;50.350;7.578;2023-03-20T14:25:33;100077.41;;;11.93;56.23
47883;BME280;37739;50.350;7.578;2023-03-20T14:28:08;100080.56;;;11.86;56.83
47883;BME280;37739;50.350;7.578;2023-03-20T14:30:49;100072.00;;;11.87;56.97
47883;BME280;37739;50.350;7.578;2023-03-20T14:38:38;100074.03;;;11.94;56.80
47883;BME280;37739;50.350;7.578;2023-03-20T14:41:29;100069.50;;;11.88;56.47
47883;BME280;37739;50.350;7.578;2023-03-20T14:46:56;100077.38;;;11.91;56.33
47883;BME280;37739;50.350;7.578;2023-03-20T14:49:24;100071.50;;;11.95;56.46
47883;BME280;37739;50.350;7.578;2023-03-20T14:52:11;100068.03;;;11.95;56.66
47883;BME280;37739;50.350;7.578;2023-03-20T14:54:53;100070.03;;;12.02;56.50
47883;BME280;37739;50.350;7.578;2023-03-20T14:57:45;100065.06;;;12.07;55.21
47883;BME280;37739;50.350;7.578;2023-03-20T15:00:26;100069.41;;;12.09;56.17
47883;BME280;37739;50.350;7.578;2023-03-20T15:03:13;100057.22;;;12.04;55.39
47883;BME280;37739;50.350;7.578;2023-03-20T15:05:42;100056.56;;;12.09;56.04
47883;BME280;37739;50.350;7.578;2023-03-20T15:08:29;100059.28;;;12.14;55.17
47883;BME280;37739;50.350;7.578;2023-03-20T15:10:59;100063.63;;;12.15;56.54
47883;BME280;37739;50.350;7.578;2023-03-20T15:13:31;100060.94;;;12.12;55.92
47883;BME280;37739;50.350;7.578;2023-03-20T15:16:11;100063.50;;;12.12;55.73
47883;BME280;37739;50.350;7.578;2023-03-20T15:18:45;100059.19;;;12.11;56.17
47883;BME280;37739;50.350;7.578;2023-03-20T15:21:17;100050.75;;;12.15;55.77
47883;BME280;37739;50.350;7.578;2023-03-20T15:23:46;100045.34;;;12.07;56.29
47883;BME280;37739;50.350;7.578;2023-03-20T15:26:20;100047.88;;;12.06;56.05
47883;BME280;37739;50.350;7.578;2023-03-20T15:28:49;100052.38;;;11.89;55.63
47883;BME280;37739;50.350;7.578;2023-03-20T15:31:28;100052.28;;;11.86;55.42
47883;BME280;37739;50.350;7.578;2023-03-20T15:33:55;100049.81;;;11.89;55.92